Skip Navigation LinksHome page > Weather > Current weather Skip Navigation Links

Current Weather

Moundou, Chad

For information only: do not use for flight planning or navigation.
Latest weather
Observation time Wednesday, October 1, 2014 4:00 PM WAT
Local time Wednesday, October 1, 2014 7:15 PM WAT
Flight conditions Visual Meteorological Conditions
Winds
Wind direction North-Northwest (340°)
Wind speed 5 mph
Visibility 6.2 mi.
Present weather RETS
Sky condition
Ceiling unlimited
Cloud layer few clouds with cumulonimbus 5,000 ft.
Temperature 75°F
Dewpoint 72°F
Altimeter 29.85 in.Hg
Derived measurements
Relative humidity 89%
Density altitude 1903 ft.
METAR FTTD 011500Z 34004KT 9999 RETS FEW050CB 24/22 Q1011

Settings

Location code

InnerDrive.Weather 4.0.5372.0 Release CLR 4.0.30319.34014
Copyright ©2014 Inner Drive Technology. All rights reserved. Portions Copyright ©1986-2014 David Braverman.

Find weather

Site navigation


Skip Navigation Links

Place info

Page info

PayPal - The safer, easier way to pay online!

Return home.

Copyright ©2014 Inner Drive Technology. Purveyors of fine, hand-crafted computer software. Page printed 2014-10-01T18:15:37 UTC.